Time;durP1;ratioP1;P1;durP2;ratioP2;P2;SDS_P1;SDS_P2;PMS_P1;PMS_P2;Temp;Humidity;BMP_temperature;BMP_pressure;BME280_temperature;BME280_humidity;BME280_pressure;Samples;Min_cycle;Max_cycle;Signal;HPM_P1;HPM_P2
2022/12/31 00:01:25;;;;;;;3.77;3.67;;;9.40;1.00;;;;;;6287982;28;20233;-56
2022/12/31 00:04:28;;;;;;;3.77;3.67;;;9.40;1.00;;;;;;6305674;28;20319;-57
2022/12/31 00:07:34;;;;;;;4.37;4.07;;;9.40;1.00;;;;;;6294189;27;20256;-56
2022/12/31 00:10:40;;;;;;;4.13;3.93;;;9.40;1.00;;;;;;6299503;28;20739;-56
2022/12/31 00:13:45;;;;;;;4.47;4.17;;;9.40;1.00;;;;;;6291129;28;20970;-56
2022/12/31 00:16:48;;;;;;;3.93;3.83;;;9.40;1.00;;;;;;6308656;28;20229;-55
2022/12/31 00:19:51;;;;;;;3.50;3.47;;;9.40;1.00;;;;;;6293812;28;20241;-56
2022/12/31 00:22:55;;;;;;;3.67;3.57;;;9.40;1.00;;;;;;6281293;28;20238;-56
2022/12/31 00:26:03;;;;;;;3.73;3.57;;;9.40;1.00;;;;;;6281243;28;20237;-55
2022/12/31 00:29:06;;;;;;;3.50;3.40;;;9.40;1.00;;;;;;6272714;28;20735;-56
2022/12/31 00:32:09;;;;;;;3.77;3.57;;;9.40;1.00;;;;;;6289934;28;20240;-56
2022/12/31 00:35:12;;;;;;;3.40;3.30;;;9.40;1.00;;;;;;6290828;28;20233;-56
2022/12/31 00:38:16;;;;;;;3.53;3.40;;;9.40;1.00;;;;;;6301311;28;20233;-55
2022/12/31 00:41:21;;;;;;;4.03;3.93;;;9.40;1.00;;;;;;6282176;28;20244;-57
2022/12/31 00:44:24;;;;;;;4.10;4.00;;;9.40;1.00;;;;;;6284744;28;20237;-55
2022/12/31 00:47:27;;;;;;;4.00;3.90;;;9.40;1.00;;;;;;6284472;28;20476;-56
2022/12/31 00:50:30;;;;;;;3.97;3.87;;;9.30;1.00;;;;;;6284246;28;20233;-56
2022/12/31 00:53:35;;;;;;;3.80;3.70;;;9.30;1.00;;;;;;6284789;28;20256;-56
2022/12/31 00:56:38;;;;;;;3.97;3.70;;;9.30;1.00;;;;;;6284658;28;20225;-56
2022/12/31 00:59:41;;;;;;;4.33;4.13;;;9.20;1.00;;;;;;6284486;28;20799;-56
2022/12/31 01:02:43;;;;;;;3.30;3.20;;;9.20;1.00;;;;;;6305860;28;20244;-55
2022/12/31 01:05:47;;;;;;;3.33;3.27;;;9.20;1.00;;;;;;6308665;28;20762;-56
2022/12/31 01:08:52;;;;;;;3.73;3.63;;;9.20;1.00;;;;;;6304314;27;20244;-56
2022/12/31 01:11:55;;;;;;;3.20;3.20;;;9.20;1.00;;;;;;6276137;28;20685;-55
2022/12/31 01:14:58;;;;;;;2.83;2.83;;;9.10;1.00;;;;;;6283659;28;20237;-55
2022/12/31 01:18:01;;;;;;;3.50;3.30;;;9.20;1.00;;;;;;6283880;28;20721;-54
2022/12/31 01:21:07;;;;;;;2.90;2.90;;;9.30;1.00;;;;;;6284442;28;20233;-56
2022/12/31 01:24:12;;;;;;;2.90;2.90;;;9.30;1.00;;;;;;6284536;28;20230;-57
2022/12/31 01:27:15;;;;;;;2.63;2.63;;;9.40;1.00;;;;;;6284918;28;20241;-56
2022/12/31 01:30:18;;;;;;;3.03;3.03;;;9.50;1.00;;;;;;6284124;28;20271;-55
2022/12/31 01:33:21;;;;;;;2.67;2.67;;;9.50;1.00;;;;;;6297499;28;20233;-56
2022/12/31 01:36:26;;;;;;;2.60;2.57;;;9.50;1.00;;;;;;6295473;28;20538;-54
2022/12/31 01:39:31;;;;;;;2.47;2.47;;;9.60;1.00;;;;;;6303221;28;20243;-54
2022/12/31 01:42:34;;;;;;;2.83;2.83;;;9.60;1.00;;;;;;6285802;28;20495;-55
2022/12/31 01:45:37;;;;;;;2.60;2.60;;;9.70;1.00;;;;;;6279153;28;20585;-55
2022/12/31 01:48:40;;;;;;;2.70;2.70;;;9.70;1.00;;;;;;6283551;28;20239;-55
2022/12/31 01:51:44;;;;;;;2.40;2.40;;;9.70;1.00;;;;;;6283411;28;20237;-56
2022/12/31 01:54:53;;;;;;;3.00;2.90;;;9.80;1.00;;;;;;6283480;28;20309;-56
2022/12/31 01:57:59;;;;;;;2.23;2.23;;;9.80;1.00;;;;;;6271637;28;20233;-55
2022/12/31 02:01:03;;;;;;;2.73;2.73;;;9.80;1.00;;;;;;6283452;28;20624;-56
2022/12/31 02:04:09;;;;;;;2.50;2.50;;;10.00;1.00;;;;;;6301273;28;20236;-55
2022/12/31 02:07:12;;;;;;;2.40;2.40;;;10.00;1.00;;;;;;6304937;27;20232;-56
2022/12/31 02:10:17;;;;;;;2.47;2.40;;;10.20;1.00;;;;;;6296599;28;20236;-55
2022/12/31 02:13:20;;;;;;;1.97;1.97;;;10.20;1.00;;;;;;6281376;28;20694;-54
2022/12/31 02:16:30;;;;;;;2.10;2.10;;;10.30;1.00;;;;;;6290788;28;20225;-56
2022/12/31 02:19:58;;;;;;;2.10;2.10;;;10.40;1.00;;;;;;6276641;28;20241;-55
2022/12/31 02:23:31;;;;;;;2.13;2.13;;;10.40;1.00;;;;;;6276193;28;20244;-56
2022/12/31 02:27:01;;;;;;;2.00;2.00;;;10.40;1.00;;;;;;6275424;28;20256;-55
2022/12/31 02:30:10;;;;;;;2.30;2.30;;;10.50;1.00;;;;;;6283420;28;20740;-55
2022/12/31 02:33:17;;;;;;;2.30;2.30;;;10.60;1.00;;;;;;6301045;28;20717;-56
2022/12/31 02:36:25;;;;;;;1.97;1.97;;;10.60;1.00;;;;;;6295875;28;20266;-56
2022/12/31 02:39:30;;;;;;;2.23;2.13;;;10.60;1.00;;;;;;6304205;28;20243;-56
2022/12/31 02:42:33;;;;;;;2.37;2.37;;;10.60;1.00;;;;;;6300260;28;20420;-56
2022/12/31 02:45:40;;;;;;;2.50;2.50;;;10.60;1.00;;;;;;6268859;28;20240;-55
2022/12/31 02:48:49;;;;;;;2.50;2.50;;;10.50;1.00;;;;;;6285227;28;20609;-55
2022/12/31 02:52:00;;;;;;;2.90;2.80;;;10.50;1.00;;;;;;6308129;28;20493;-55
2022/12/31 02:55:12;;;;;;;2.57;2.57;;;10.50;1.00;;;;;;6306981;28;20275;-56
2022/12/31 03:02:12;;;;;;;2.90;2.70;;;10.50;1.00;;;;;;6282512;28;20233;-55
2022/12/31 03:05:14;;;;;;;2.50;2.50;;;10.60;1.00;;;;;;6299387;28;20648;-56
2022/12/31 03:08:22;;;;;;;3.00;2.80;;;10.50;1.00;;;;;;6305327;27;20251;-55
2022/12/31 03:14:48;;;;;;;2.73;2.73;;;10.40;1.00;;;;;;6264200;28;20442;-56
2022/12/31 03:17:55;;;;;;;2.60;2.50;;;10.40;1.00;;;;;;6280452;28;20236;-57
2022/12/31 03:27:45;;;;;;;2.30;2.30;;;10.20;1.00;;;;;;6277005;28;20225;-54
2022/12/31 03:30:52;;;;;;;2.60;2.60;;;10.30;1.00;;;;;;6282073;28;20717;-55
2022/12/31 03:33:56;;;;;;;2.37;2.37;;;10.20;1.00;;;;;;6305973;28;20245;-56
2022/12/31 03:36:59;;;;;;;2.70;2.70;;;10.20;1.00;;;;;;6298442;28;20243;-56
2022/12/31 03:40:02;;;;;;;2.40;2.40;;;10.10;1.00;;;;;;6312034;28;20244;-56
2022/12/31 03:43:05;;;;;;;2.37;2.27;;;10.10;1.00;;;;;;6279508;28;20240;-56
2022/12/31 03:46:08;;;;;;;2.53;2.53;;;10.10;1.00;;;;;;6296101;28;20247;-55
2022/12/31 03:49:12;;;;;;;2.50;2.50;;;10.10;1.00;;;;;;6305398;28;20237;-56
2022/12/31 03:52:15;;;;;;;2.40;2.40;;;10.10;1.00;;;;;;6310027;28;20244;-57
2022/12/31 03:55:18;;;;;;;2.50;2.50;;;10.20;1.00;;;;;;6309635;28;20249;-55
2022/12/31 03:58:22;;;;;;;2.50;2.50;;;10.20;1.00;;;;;;6310811;28;20655;-55
2022/12/31 04:01:25;;;;;;;2.37;2.37;;;10.20;1.00;;;;;;6306506;28;20490;-55
2022/12/31 04:04:30;;;;;;;2.20;2.20;;;10.30;1.00;;;;;;6309921;28;20255;-55
2022/12/31 04:07:33;;;;;;;2.30;2.30;;;10.30;1.00;;;;;;6307834;27;20240;-56
2022/12/31 04:10:36;;;;;;;2.87;2.30;;;10.40;1.00;;;;;;6305767;28;20233;-55
2022/12/31 04:13:39;;;;;;;2.20;2.20;;;10.50;1.00;;;;;;6311129;28;20260;-57
2022/12/31 04:16:42;;;;;;;2.80;2.70;;;10.50;1.00;;;;;;6310687;28;20233;-56
2022/12/31 04:19:46;;;;;;;2.37;2.27;;;10.50;1.00;;;;;;6285989;28;20233;-56
2022/12/31 04:22:49;;;;;;;2.43;2.43;;;10.60;1.00;;;;;;6285567;28;20237;-56
2022/12/31 04:25:53;;;;;;;2.40;2.20;;;10.70;1.00;;;;;;6278236;28;20221;-54
2022/12/31 04:28:56;;;;;;;2.17;2.17;;;10.80;1.00;;;;;;6277378;28;20240;-56
2022/12/31 04:31:59;;;;;;;2.10;2.10;;;10.90;1.00;;;;;;6276069;28;21523;-55
2022/12/31 04:35:05;;;;;;;2.10;2.10;;;10.90;1.00;;;;;;6287009;28;20280;-56
2022/12/31 04:38:07;;;;;;;2.37;2.27;;;10.90;1.00;;;;;;6293998;28;20370;-57
2022/12/31 04:41:16;;;;;;;2.40;2.40;;;11.00;1.00;;;;;;6305981;28;20232;-55
2022/12/31 04:44:19;;;;;;;2.30;2.30;;;11.00;1.00;;;;;;6286910;28;20235;-55
2022/12/31 04:47:22;;;;;;;2.10;2.10;;;11.00;1.00;;;;;;6295860;28;20221;-56
2022/12/31 04:50:27;;;;;;;2.37;2.37;;;11.00;1.00;;;;;;6297112;28;20236;-56
2022/12/31 04:53:31;;;;;;;2.30;2.30;;;11.00;1.00;;;;;;6284401;28;20244;-56
2022/12/31 04:56:35;;;;;;;2.50;2.50;;;11.00;1.00;;;;;;6287644;28;20325;-55
2022/12/31 04:59:38;;;;;;;2.30;2.30;;;11.00;1.00;;;;;;6301248;28;20700;-55
2022/12/31 05:02:41;;;;;;;2.33;2.23;;;11.10;1.00;;;;;;6293781;28;20233;-56
2022/12/31 05:05:46;;;;;;;2.20;2.20;;;11.10;1.00;;;;;;6294099;28;20297;-56
2022/12/31 05:08:50;;;;;;;2.13;2.13;;;11.10;1.00;;;;;;6288985;28;20244;-55
2022/12/31 05:11:53;;;;;;;2.40;2.30;;;11.10;1.00;;;;;;6286463;28;20630;-55
2022/12/31 05:14:56;;;;;;;2.30;2.30;;;11.20;1.00;;;;;;6281271;28;20241;-56
2022/12/31 05:17:58;;;;;;;2.20;2.20;;;11.20;1.00;;;;;;6276317;28;20237;-56
2022/12/31 05:21:03;;;;;;;2.03;2.03;;;11.30;1.00;;;;;;6288937;28;20247;-55
2022/12/31 05:24:07;;;;;;;2.43;2.43;;;11.30;1.00;;;;;;6298776;28;20605;-56
2022/12/31 05:27:11;;;;;;;2.30;2.30;;;11.40;1.00;;;;;;6306849;28;20241;-56
2022/12/31 05:30:14;;;;;;;2.23;2.23;;;11.40;1.00;;;;;;6307925;28;20243;-56
2022/12/31 05:33:17;;;;;;;2.10;2.10;;;11.40;1.00;;;;;;6299736;28;20229;-56
2022/12/31 05:36:22;;;;;;;2.30;2.30;;;11.50;1.00;;;;;;6302135;28;20224;-55
2022/12/31 05:39:25;;;;;;;2.13;2.00;;;11.50;1.00;;;;;;6302038;28;20237;-56
2022/12/31 05:42:28;;;;;;;2.10;2.10;;;11.60;1.00;;;;;;6285236;28;20250;-55
2022/12/31 05:45:31;;;;;;;2.40;2.30;;;11.60;1.00;;;;;;6299579;28;20227;-56
2022/12/31 05:48:33;;;;;;;2.20;2.20;;;11.50;1.00;;;;;;6302719;28;20237;-56
2022/12/31 05:51:38;;;;;;;2.80;2.70;;;11.40;1.00;;;;;;6302792;28;20740;-56
2022/12/31 05:54:41;;;;;;;2.20;2.20;;;11.40;1.00;;;;;;6284879;28;20242;-56
2022/12/31 05:57:44;;;;;;;2.33;2.30;;;11.40;1.00;;;;;;6277220;28;20234;-56
2022/12/31 06:00:47;;;;;;;2.20;2.20;;;11.40;1.00;;;;;;6297032;28;20239;-56
2022/12/31 06:03:50;;;;;;;2.33;2.33;;;11.40;1.00;;;;;;6297334;28;20320;-55
2022/12/31 06:06:54;;;;;;;2.20;2.20;;;11.40;1.00;;;;;;6300886;28;20233;-56
2022/12/31 06:09:57;;;;;;;3.17;2.97;;;11.40;1.00;;;;;;6296585;28;20244;-56
2022/12/31 06:13:00;;;;;;;2.47;2.47;;;11.50;1.00;;;;;;6279964;28;20629;-55
2022/12/31 06:16:06;;;;;;;2.10;2.10;;;11.40;1.00;;;;;;6293924;28;20619;-55
2022/12/31 06:19:09;;;;;;;2.70;2.50;;;11.40;1.00;;;;;;6307140;28;20319;-55
2022/12/31 06:22:14;;;;;;;2.13;2.13;;;11.50;1.00;;;;;;6285669;28;20805;-54
2022/12/31 06:25:17;;;;;;;2.37;2.37;;;11.50;1.00;;;;;;6274999;28;20236;-55
2022/12/31 06:28:20;;;;;;;2.20;2.20;;;11.50;1.00;;;;;;6274335;28;20244;-55
2022/12/31 06:31:23;;;;;;;2.37;2.27;;;11.60;1.00;;;;;;6285238;28;20312;-55
2022/12/31 06:34:26;;;;;;;2.23;2.23;;;11.60;1.00;;;;;;6297950;28;20258;-57
2022/12/31 06:37:30;;;;;;;2.40;2.40;;;11.60;1.00;;;;;;6304907;28;20243;-56
2022/12/31 06:40:33;;;;;;;2.80;2.80;;;11.70;1.00;;;;;;6301793;28;20236;-57
2022/12/31 06:43:37;;;;;;;2.60;2.60;;;11.80;1.00;;;;;;6296298;28;20284;-56
2022/12/31 06:46:40;;;;;;;2.10;2.10;;;11.90;1.00;;;;;;6286033;28;20295;-56
2022/12/31 06:49:43;;;;;;;2.40;2.40;;;12.00;1.00;;;;;;6286945;28;20224;-56
2022/12/31 06:52:47;;;;;;;1.90;1.90;;;12.00;1.00;;;;;;6297903;28;20229;-56
2022/12/31 06:55:51;;;;;;;2.20;2.20;;;12.10;1.00;;;;;;6281642;28;20379;-56
2022/12/31 06:58:55;;;;;;;2.23;2.13;;;12.30;1.00;;;;;;6276231;28;20234;-56
2022/12/31 07:02:24;;;;;;;2.13;2.13;;;12.30;1.00;;;;;;6298435;28;20599;-58
2022/12/31 07:05:35;;;;;;;2.00;2.00;;;12.30;1.00;;;;;;6296409;28;20307;-57
2022/12/31 07:08:49;;;;;;;2.40;2.40;;;12.40;1.00;;;;;;6302559;28;20233;-55
2022/12/31 07:12:02;;;;;;;1.97;1.97;;;12.40;1.00;;;;;;6292832;28;20601;-56
2022/12/31 07:15:11;;;;;;;2.10;2.10;;;12.50;1.00;;;;;;6302168;28;20293;-56
2022/12/31 07:18:23;;;;;;;2.10;2.10;;;12.60;1.00;;;;;;6299601;28;20241;-55
2022/12/31 07:21:34;;;;;;;2.13;2.03;;;12.70;1.00;;;;;;6301671;28;20241;-56
2022/12/31 07:24:39;;;;;;;2.43;2.20;;;12.80;1.00;;;;;;6289840;28;20700;-55
2022/12/31 07:27:52;;;;;;;2.10;2.00;;;12.80;1.00;;;;;;6284937;28;20251;-56
2022/12/31 07:31:04;;;;;;;1.80;1.80;;;12.80;1.00;;;;;;6288257;28;20252;-56
2022/12/31 07:34:18;;;;;;;1.90;1.87;;;12.90;1.00;;;;;;6296983;28;20239;-56
2022/12/31 07:37:31;;;;;;;5.20;2.23;;;13.00;1.00;;;;;;6287680;28;20646;-56
2022/12/31 07:40:53;;;;;;;2.10;2.10;;;13.00;1.00;;;;;;6310940;28;20240;-56
2022/12/31 07:44:06;;;;;;;1.90;1.90;;;13.10;1.00;;;;;;6287055;28;20226;-56
2022/12/31 07:47:19;;;;;;;2.10;2.10;;;13.20;1.00;;;;;;6296124;28;20237;-56
2022/12/31 07:50:23;;;;;;;1.90;1.90;;;13.30;1.00;;;;;;6295574;28;20232;-56
2022/12/31 07:53:26;;;;;;;2.13;2.13;;;13.40;1.00;;;;;;6305076;28;20514;-56
2022/12/31 07:56:31;;;;;;;1.90;1.90;;;13.40;1.00;;;;;;6292542;28;20320;-56
2022/12/31 07:59:47;;;;;;;1.97;1.97;;;13.50;1.00;;;;;;6300075;28;20237;-55
2022/12/31 08:03:13;;;;;;;2.07;1.97;;;13.60;1.00;;;;;;6295123;28;20752;-55
2022/12/31 08:06:25;;;;;;;2.07;2.07;;;13.70;1.00;;;;;;6292571;28;20258;-56
2022/12/31 08:09:44;;;;;;;2.00;2.00;;;13.70;1.00;;;;;;6293513;28;20236;-55
2022/12/31 08:12:50;;;;;;;1.90;1.90;;;13.80;1.00;;;;;;6304955;28;20240;-55
2022/12/31 08:15:53;;;;;;;1.87;1.87;;;13.80;1.00;;;;;;6305049;28;20244;-55
2022/12/31 08:18:57;;;;;;;1.90;1.90;;;13.90;1.00;;;;;;6291030;28;20651;-56
2022/12/31 08:22:22;;;;;;;2.07;1.97;;;13.90;1.00;;;;;;6302131;28;20377;-55
2022/12/31 08:25:31;;;;;;;1.87;1.87;;;14.10;1.00;;;;;;6304183;28;20233;-55
2022/12/31 08:28:56;;;;;;;2.00;2.00;;;14.10;1.00;;;;;;6283274;28;20242;-56
2022/12/31 08:32:08;;;;;;;2.13;2.13;;;14.20;1.00;;;;;;6291221;28;20239;-55
2022/12/31 08:35:25;;;;;;;1.80;1.70;;;14.30;1.00;;;;;;6292483;28;20299;-56
2022/12/31 08:38:37;;;;;;;2.00;2.00;;;14.30;1.00;;;;;;6289722;28;20241;-56
2022/12/31 08:41:42;;;;;;;1.80;1.80;;;14.40;1.00;;;;;;6286545;28;20236;-56
2022/12/31 08:44:55;;;;;;;2.10;2.00;;;14.40;1.00;;;;;;6295444;28;20451;-57
2022/12/31 08:48:03;;;;;;;2.00;2.00;;;14.40;1.00;;;;;;6299036;28;20240;-55
2022/12/31 08:51:09;;;;;;;2.10;2.00;;;14.40;1.00;;;;;;6308647;28;20244;-60
2022/12/31 08:54:13;;;;;;;2.07;2.00;;;14.50;1.00;;;;;;6300885;28;20492;-58
2022/12/31 08:57:23;;;;;;;2.10;2.07;;;14.50;1.00;;;;;;6302792;28;20310;-57
2022/12/31 09:00:28;;;;;;;2.10;2.10;;;14.60;1.00;;;;;;6307109;28;20491;-57
2022/12/31 09:03:46;;;;;;;2.30;2.30;;;14.70;1.00;;;;;;6309561;28;20346;-57
2022/12/31 09:06:56;;;;;;;1.97;1.97;;;14.70;1.00;;;;;;6290480;27;20229;-56
2022/12/31 09:10:07;;;;;;;2.20;2.10;;;14.80;1.00;;;;;;6306222;28;20237;-56
2022/12/31 09:13:16;;;;;;;2.00;2.00;;;14.90;1.00;;;;;;6294330;28;20499;-55
2022/12/31 09:16:28;;;;;;;1.90;1.80;;;14.90;1.00;;;;;;6288203;28;20243;-55
2022/12/31 09:19:31;;;;;;;2.00;2.00;;;14.90;1.00;;;;;;6288981;28;20642;-55
2022/12/31 09:22:35;;;;;;;1.83;1.83;;;15.10;1.00;;;;;;6294230;28;20226;-56
2022/12/31 09:25:45;;;;;;;2.23;2.13;;;15.10;1.00;;;;;;6305467;28;20315;-56
2022/12/31 09:28:58;;;;;;;2.10;2.10;;;15.10;1.00;;;;;;6296399;28;20244;-56
2022/12/31 09:32:12;;;;;;;2.20;1.83;;;15.20;1.00;;;;;;6286760;28;20229;-56
2022/12/31 09:35:24;;;;;;;1.90;1.90;;;15.30;1.00;;;;;;6298040;28;20248;-55
2022/12/31 09:38:35;;;;;;;2.10;2.10;;;15.50;1.00;;;;;;6306529;28;20741;-57
2022/12/31 09:42:18;;;;;;;2.33;2.10;;;15.60;1.00;;;;;;6307942;28;20225;-55
2022/12/31 09:45:56;;;;;;;2.10;2.00;;;15.80;1.00;;;;;;6303481;28;20225;-55
2022/12/31 09:49:36;;;;;;;2.00;1.90;;;15.80;1.00;;;;;;6273486;28;20243;-57
2022/12/31 09:52:52;;;;;;;1.83;1.83;;;15.90;1.00;;;;;;6290294;28;20234;-56
2022/12/31 09:56:00;;;;;;;1.90;1.90;;;16.00;1.00;;;;;;6287877;28;20237;-56
2022/12/31 09:59:12;;;;;;;1.90;1.90;;;16.00;1.00;;;;;;6286617;28;20271;-55
2022/12/31 10:02:28;;;;;;;2.20;2.10;;;16.20;1.00;;;;;;6286420;28;20255;-56
2022/12/31 10:05:56;;;;;;;1.73;1.60;;;16.40;1.00;;;;;;6285830;28;20236;-56
2022/12/31 10:09:35;;;;;;;1.80;1.73;;;16.50;1.00;;;;;;6286770;28;20240;-55
2022/12/31 10:13:02;;;;;;;1.83;1.83;;;16.50;1.00;;;;;;6302157;28;20702;-56
2022/12/31 10:16:24;;;;;;;1.97;1.97;;;16.60;1.00;;;;;;6307382;28;20251;-55
2022/12/31 10:19:51;;;;;;;2.07;2.07;;;16.50;1.00;;;;;;6303342;28;20255;-55
2022/12/31 10:23:16;;;;;;;1.80;1.80;;;16.50;1.00;;;;;;6304405;28;20316;-55
2022/12/31 10:26:27;;;;;;;2.17;1.90;;;16.50;1.00;;;;;;6300119;28;20229;-55
2022/12/31 10:29:45;;;;;;;2.27;2.17;;;16.50;1.00;;;;;;6299462;28;20245;-55
2022/12/31 10:32:59;;;;;;;1.90;1.80;;;16.40;1.00;;;;;;6290453;28;20620;-56
2022/12/31 10:36:09;;;;;;;2.00;2.00;;;16.50;1.00;;;;;;6285982;28;20245;-55
2022/12/31 10:39:23;;;;;;;1.90;1.90;;;16.60;1.00;;;;;;6292146;28;20232;-55
2022/12/31 10:42:48;;;;;;;2.07;1.90;;;16.60;1.00;;;;;;6287064;28;20225;-56
2022/12/31 10:46:25;;;;;;;2.00;2.00;;;16.70;1.00;;;;;;6295336;28;20388;-55
2022/12/31 10:49:47;;;;;;;2.03;1.97;;;16.60;1.00;;;;;;6292732;28;20229;-56
2022/12/31 10:53:17;;;;;;;1.80;1.80;;;16.60;1.00;;;;;;6306158;28;20244;-55
2022/12/31 10:56:51;;;;;;;1.90;1.87;;;16.60;1.00;;;;;;6272865;28;20229;-56
2022/12/31 11:00:13;;;;;;;1.90;1.80;;;16.60;1.00;;;;;;6302200;28;20244;-56
2022/12/31 11:04:09;;;;;;;1.87;1.80;;;16.50;1.00;;;;;;6287219;28;20237;-56
2022/12/31 11:07:41;;;;;;;1.70;1.70;;;16.40;1.00;;;;;;6289859;28;20236;-58
2022/12/31 11:11:05;;;;;;;2.00;2.00;;;16.40;1.00;;;;;;6299883;28;20229;-58
2022/12/31 11:14:42;;;;;;;1.90;1.90;;;16.40;1.00;;;;;;6294182;28;20251;-56
2022/12/31 11:17:58;;;;;;;2.00;2.00;;;16.30;1.00;;;;;;6299946;28;20459;-55
2022/12/31 11:21:22;;;;;;;1.90;1.90;;;16.30;1.00;;;;;;6312054;28;20248;-55
2022/12/31 11:24:39;;;;;;;1.87;1.87;;;16.30;1.00;;;;;;6294744;28;20255;-57
2022/12/31 11:28:01;;;;;;;2.20;2.10;;;16.30;1.00;;;;;;6296812;28;20390;-57
2022/12/31 11:31:37;;;;;;;2.53;2.20;;;16.30;1.00;;;;;;6304284;28;20641;-56
2022/12/31 11:35:29;;;;;;;2.00;1.93;;;16.30;1.00;;;;;;6300140;28;20236;-56
2022/12/31 11:38:37;;;;;;;2.10;2.00;;;16.40;1.00;;;;;;6226109;28;20696;-55
2022/12/31 11:41:49;;;;;;;2.17;2.10;;;16.40;1.00;;;;;;6232082;28;20645;-55
2022/12/31 11:44:59;;;;;;;2.00;2.00;;;16.40;1.00;;;;;;6292072;28;20342;-54
2022/12/31 11:48:12;;;;;;;2.00;2.00;;;16.40;1.00;;;;;;6291071;28;20241;-57
2022/12/31 11:51:52;;;;;;;2.23;2.10;;;16.50;1.00;;;;;;6307723;28;20233;-55
2022/12/31 11:55:21;;;;;;;2.20;2.10;;;16.60;1.00;;;;;;6295779;28;20471;-56
2022/12/31 11:58:27;;;;;;;2.10;2.10;;;16.80;1.00;;;;;;6294696;28;20226;-55
2022/12/31 12:01:36;;;;;;;2.40;2.30;;;16.80;1.00;;;;;;6302830;28;20303;-55
2022/12/31 12:04:40;;;;;;;2.40;2.40;;;16.90;1.00;;;;;;6302611;28;20583;-55
2022/12/31 12:07:43;;;;;;;2.07;2.07;;;16.90;1.00;;;;;;6296474;27;20237;-55
2022/12/31 12:10:48;;;;;;;2.17;2.17;;;17.00;1.00;;;;;;6295617;28;20237;-55
2022/12/31 12:13:51;;;;;;;2.30;2.30;;;17.00;1.00;;;;;;6299464;28;20318;-58
2022/12/31 12:16:55;;;;;;;2.57;2.40;;;17.20;1.00;;;;;;6311933;28;20403;-55
2022/12/31 12:20:18;;;;;;;2.03;1.90;;;17.20;1.00;;;;;;6311321;28;20236;-56
2022/12/31 12:23:25;;;;;;;2.20;2.10;;;17.30;1.00;;;;;;6288469;28;20237;-61
2022/12/31 12:26:33;;;;;;;2.10;2.10;;;17.40;1.00;;;;;;6308471;28;20239;-55
2022/12/31 12:29:39;;;;;;;2.43;2.33;;;17.40;1.00;;;;;;6304704;28;20318;-55
2022/12/31 12:32:52;;;;;;;2.07;1.93;;;17.50;1.00;;;;;;6305295;28;20530;-55
2022/12/31 12:36:07;;;;;;;2.27;2.17;;;17.40;1.00;;;;;;6296613;28;20547;-58
2022/12/31 12:39:20;;;;;;;2.50;2.27;;;17.40;1.00;;;;;;6305207;28;20628;-57
2022/12/31 12:42:23;;;;;;;2.40;2.40;;;17.50;1.00;;;;;;6301616;28;20608;-55
2022/12/31 12:45:29;;;;;;;2.23;2.10;;;17.40;1.00;;;;;;6301765;28;20229;-57
2022/12/31 12:48:38;;;;;;;2.17;2.07;;;17.50;1.00;;;;;;6302409;28;20232;-55
2022/12/31 12:52:00;;;;;;;2.17;2.07;;;17.60;1.00;;;;;;6298814;28;20241;-55
2022/12/31 12:55:14;;;;;;;3.10;2.47;;;17.60;1.00;;;;;;6292299;27;20387;-54
2022/12/31 12:58:34;;;;;;;2.80;2.17;;;17.50;1.00;;;;;;6306657;28;20241;-55
2022/12/31 13:01:46;;;;;;;2.47;2.30;;;17.50;1.00;;;;;;6284338;28;20229;-55
2022/12/31 13:05:10;;;;;;;2.07;2.07;;;17.40;1.00;;;;;;6295307;28;20239;-56
2022/12/31 13:08:28;;;;;;;2.17;2.00;;;17.40;1.00;;;;;;6300800;28;20253;-55
2022/12/31 13:11:42;;;;;;;2.23;2.13;;;17.40;1.00;;;;;;6285215;28;20234;-58
2022/12/31 13:14:53;;;;;;;2.27;2.10;;;17.40;1.00;;;;;;6282686;28;20245;-55
2022/12/31 13:18:09;;;;;;;2.33;2.20;;;17.50;1.00;;;;;;6295745;28;20239;-57
2022/12/31 13:21:28;;;;;;;2.23;2.23;;;17.50;1.00;;;;;;6294353;28;20233;-55
2022/12/31 13:24:52;;;;;;;2.17;2.10;;;17.50;1.00;;;;;;6290654;28;20221;-56
2022/12/31 13:27:59;;;;;;;2.27;2.03;;;17.50;1.00;;;;;;6303781;28;20258;-57
2022/12/31 13:31:06;;;;;;;2.50;2.40;;;17.60;1.00;;;;;;6285126;28;20245;-56
2022/12/31 13:34:16;;;;;;;3.33;3.07;;;17.50;1.00;;;;;;6283501;28;20283;-56
2022/12/31 13:37:27;;;;;;;2.40;2.30;;;17.50;1.00;;;;;;6297658;27;20241;-55
2022/12/31 13:40:48;;;;;;;2.57;2.47;;;17.50;1.00;;;;;;6284712;28;20228;-54
2022/12/31 13:43:57;;;;;;;3.10;2.83;;;17.50;1.00;;;;;;6290056;28;20241;-55
2022/12/31 13:47:06;;;;;;;2.60;2.40;;;17.50;1.00;;;;;;6269837;28;20229;-53
2022/12/31 13:50:18;;;;;;;2.43;2.20;;;17.50;1.00;;;;;;6304932;28;20237;-55
2022/12/31 13:53:26;;;;;;;2.20;2.10;;;17.50;1.00;;;;;;6298939;28;20241;-55
2022/12/31 13:56:36;;;;;;;2.73;2.53;;;17.60;1.00;;;;;;6285799;28;20237;-55
2022/12/31 13:59:47;;;;;;;2.40;2.30;;;17.60;1.00;;;;;;6294310;28;20346;-55
2022/12/31 14:03:03;;;;;;;2.20;2.10;;;17.60;1.00;;;;;;6283455;28;20240;-56
2022/12/31 14:06:11;;;;;;;2.70;2.50;;;17.60;1.00;;;;;;6297653;28;20235;-56
2022/12/31 14:09:20;;;;;;;2.50;2.40;;;17.50;1.00;;;;;;6279258;28;20601;-56
2022/12/31 14:12:34;;;;;;;2.20;2.20;;;17.60;1.00;;;;;;6299767;28;20285;-55
2022/12/31 14:15:43;;;;;;;2.13;1.97;;;17.60;1.00;;;;;;6305803;28;20236;-56
2022/12/31 14:18:53;;;;;;;4.40;2.03;;;17.60;1.00;;;;;;6291240;28;20257;-54
2022/12/31 14:22:04;;;;;;;2.63;2.53;;;17.50;1.00;;;;;;6278570;28;20217;-53
2022/12/31 14:25:16;;;;;;;2.27;2.10;;;17.50;1.00;;;;;;6282451;28;20237;-54
2022/12/31 14:28:26;;;;;;;2.27;2.03;;;17.50;1.00;;;;;;6286576;28;20303;-56
2022/12/31 14:31:44;;;;;;;2.10;2.10;;;17.50;1.00;;;;;;6303128;28;20236;-54
2022/12/31 14:34:56;;;;;;;1.90;1.90;;;17.50;1.00;;;;;;6295620;28;20700;-54
2022/12/31 14:38:05;;;;;;;2.70;2.50;;;17.50;1.00;;;;;;6299520;27;20636;-56
2022/12/31 14:41:20;;;;;;;2.10;2.00;;;17.30;1.00;;;;;;6297225;28;20240;-55
2022/12/31 14:44:36;;;;;;;2.60;2.50;;;17.30;1.00;;;;;;6301190;28;20241;-54
2022/12/31 14:47:50;;;;;;;2.50;2.50;;;17.30;1.00;;;;;;6296288;28;20685;-55
2022/12/31 14:50:53;;;;;;;2.80;2.70;;;17.30;1.00;;;;;;6277245;28;20236;-56
2022/12/31 14:53:57;;;;;;;2.40;2.40;;;17.30;1.00;;;;;;6282214;28;20616;-55
2022/12/31 14:57:10;;;;;;;2.43;2.33;;;17.30;1.00;;;;;;6279124;28;20368;-55
2022/12/31 15:00:31;;;;;;;3.00;2.80;;;17.30;1.00;;;;;;6269120;28;20237;-55
2022/12/31 15:03:38;;;;;;;2.50;2.30;;;17.20;1.00;;;;;;6291969;28;20232;-56
2022/12/31 15:06:57;;;;;;;2.50;2.40;;;17.10;1.00;;;;;;6285949;28;20241;-55
2022/12/31 15:10:12;;;;;;;2.77;2.60;;;17.10;1.00;;;;;;6297890;28;20233;-54
2022/12/31 15:13:25;;;;;;;3.03;2.93;;;17.10;1.00;;;;;;6288307;28;20233;-54
2022/12/31 15:16:41;;;;;;;3.67;2.53;;;17.00;1.00;;;;;;6307240;28;20267;-56
2022/12/31 15:20:17;;;;;;;4.13;3.80;;;16.90;1.00;;;;;;6301517;28;20228;-54
2022/12/31 15:23:23;;;;;;;3.40;3.30;;;16.80;1.00;;;;;;6285170;28;20239;-55
2022/12/31 15:26:30;;;;;;;3.30;3.20;;;16.80;1.00;;;;;;6301598;28;20247;-54
2022/12/31 15:29:36;;;;;;;3.83;3.70;;;16.80;1.00;;;;;;6295153;28;20268;-54
2022/12/31 15:32:42;;;;;;;3.40;3.30;;;16.80;1.00;;;;;;6289541;28;20228;-55
2022/12/31 15:35:50;;;;;;;3.23;3.13;;;16.70;1.00;;;;;;6284825;28;20229;-55
2022/12/31 15:39:23;;;;;;;3.03;2.97;;;16.70;1.00;;;;;;6296797;28;20701;-55
2022/12/31 15:42:40;;;;;;;3.50;3.30;;;16.70;1.00;;;;;;6308434;28;22077;-55
2022/12/31 15:45:52;;;;;;;4.00;3.67;;;16.60;1.00;;;;;;6311963;28;20350;-54
2022/12/31 15:49:02;;;;;;;2.90;2.80;;;16.80;1.00;;;;;;6310943;28;20699;-55
2022/12/31 15:52:17;;;;;;;3.43;3.23;;;16.80;1.00;;;;;;6297902;28;20411;-56
2022/12/31 15:55:26;;;;;;;4.23;3.93;;;16.70;1.00;;;;;;6303148;28;20225;-55
2022/12/31 15:58:34;;;;;;;4.13;3.93;;;16.70;1.00;;;;;;6302468;28;20225;-56
2022/12/31 16:01:40;;;;;;;3.77;3.63;;;16.60;1.00;;;;;;6310235;28;20239;-55
2022/12/31 16:04:44;;;;;;;4.40;4.00;;;16.60;1.00;;;;;;6289750;28;20228;-55
2022/12/31 16:07:48;;;;;;;3.60;3.43;;;16.50;1.00;;;;;;6305207;27;20241;-55
2022/12/31 16:10:53;;;;;;;5.17;4.87;;;16.50;1.00;;;;;;6295352;28;20235;-55
2022/12/31 16:13:58;;;;;;;6.10;5.63;;;16.50;1.00;;;;;;6304354;28;20645;-56
2022/12/31 16:17:01;;;;;;;5.80;5.40;;;16.50;1.00;;;;;;6308330;28;20325;-55
2022/12/31 16:23:33;;;;;;;4.97;4.67;;;16.50;1.00;;;;;;6282171;28;20659;-55
2022/12/31 16:26:46;;;;;;;5.00;4.73;;;16.50;1.00;;;;;;6283033;28;20662;-54
2022/12/31 16:29:57;;;;;;;4.53;4.33;;;16.50;1.00;;;;;;6265833;28;20237;-57
2022/12/31 16:33:02;;;;;;;4.77;4.57;;;16.50;1.00;;;;;;6297545;28;20710;-55
2022/12/31 16:36:05;;;;;;;4.87;4.53;;;16.60;1.00;;;;;;6304083;28;20299;-54
2022/12/31 16:39:28;;;;;;;4.33;4.10;;;16.60;1.00;;;;;;6297771;28;20244;-55
2022/12/31 16:42:31;;;;;;;4.37;3.97;;;16.60;1.00;;;;;;6301276;28;20316;-57
2022/12/31 16:45:37;;;;;;;4.80;4.40;;;16.70;1.00;;;;;;6304011;28;20220;-56
2022/12/31 16:48:40;;;;;;;3.60;3.50;;;16.70;1.00;;;;;;6299871;28;20237;-55
2022/12/31 16:51:44;;;;;;;5.10;4.70;;;16.70;1.00;;;;;;6304185;28;20225;-55
2022/12/31 16:54:48;;;;;;;5.13;4.83;;;16.80;1.00;;;;;;6305396;27;20232;-56
2022/12/31 16:57:54;;;;;;;5.70;5.20;;;16.90;1.00;;;;;;6311589;27;20246;-57
2022/12/31 17:01:08;;;;;;;4.40;4.07;;;16.90;1.00;;;;;;6302410;28;20240;-55